Time;durP1;ratioP1;P1;durP2;ratioP2;P2;SDS_P1;SDS_P2;PMS_P1;PMS_P2;Temp;Humidity;BMP_temperature;BMP_pressure;BME280_temperature;BME280_humidity;BME280_pressure;Samples;Min_cycle;Max_cycle;Signal;HPM_P1;HPM_P2
2020/12/22 00:01:49;;;;;;;1.70;0.90;;;11.90;99.90;;;;;;5054666;28;20448;-68
2020/12/22 00:04:17;;;;;;;0.93;0.80;;;12.00;99.90;;;;;;5054670;28;20437;-67
2020/12/22 00:06:43;;;;;;;1.67;0.90;;;12.20;99.90;;;;;;5054681;28;20521;-69
2020/12/22 00:09:09;;;;;;;1.23;0.87;;;12.30;99.90;;;;;;5054622;28;20436;-68
2020/12/22 00:11:35;;;;;;;1.80;0.70;;;12.40;99.90;;;;;;5054466;28;20501;-68
2020/12/22 00:14:02;;;;;;;0.73;0.73;;;12.50;99.90;;;;;;5054459;28;20436;-67
2020/12/22 00:16:33;;;;;;;2.90;1.60;;;12.60;99.90;;;;;;5054419;28;20467;-68
2020/12/22 00:19:00;;;;;;;1.57;0.90;;;12.70;99.90;;;;;;5054533;28;20450;-67
2020/12/22 00:21:32;;;;;;;0.87;0.83;;;12.80;99.90;;;;;;5054330;28;20444;-67
2020/12/22 00:23:59;;;;;;;2.07;1.07;;;12.90;99.90;;;;;;5054364;28;20798;-68
2020/12/22 00:26:26;;;;;;;2.20;1.70;;;13.00;99.90;;;;;;5054079;28;20545;-67
2020/12/22 00:28:53;;;;;;;1.40;1.23;;;13.00;99.90;;;;;;5054241;28;20436;-68
2020/12/22 00:31:19;;;;;;;1.10;1.07;;;13.00;99.90;;;;;;5053931;28;20452;-68
2020/12/22 00:33:46;;;;;;;1.20;1.10;;;13.10;99.90;;;;;;5053653;28;20494;-67
2020/12/22 00:36:12;;;;;;;0.70;0.70;;;13.20;99.90;;;;;;5054038;28;20467;-68
2020/12/22 00:38:39;;;;;;;1.37;0.93;;;13.30;99.90;;;;;;5054061;28;20448;-68
2020/12/22 00:41:05;;;;;;;1.37;1.27;;;13.30;99.90;;;;;;5053758;28;20448;-68
2020/12/22 00:43:32;;;;;;;0.87;0.73;;;13.40;99.90;;;;;;5054052;28;20447;-67
2020/12/22 00:45:58;;;;;;;1.10;1.10;;;13.50;99.90;;;;;;5053917;28;20484;-66
2020/12/22 00:48:24;;;;;;;1.43;0.67;;;13.50;99.90;;;;;;5054090;28;20446;-67
2020/12/22 00:50:50;;;;;;;1.23;0.67;;;13.60;99.90;;;;;;5053867;28;20502;-67
2020/12/22 00:53:16;;;;;;;0.70;0.70;;;13.70;99.90;;;;;;5054024;28;20436;-67
2020/12/22 00:55:44;;;;;;;0.90;0.90;;;13.70;99.90;;;;;;5053748;28;20460;-68
2020/12/22 00:58:10;;;;;;;1.13;0.77;;;13.70;99.90;;;;;;5053667;28;20811;-68
2020/12/22 01:00:38;;;;;;;0.77;0.77;;;13.70;99.90;;;;;;5053566;28;20937;-68
2020/12/22 01:03:05;;;;;;;0.77;0.77;;;13.80;99.90;;;;;;5053742;28;21025;-67
2020/12/22 01:05:31;;;;;;;0.90;0.60;;;13.80;99.90;;;;;;5053560;28;20488;-67
2020/12/22 01:07:57;;;;;;;0.60;0.60;;;13.90;99.90;;;;;;5053708;28;20440;-67
2020/12/22 01:10:23;;;;;;;0.60;0.60;;;13.90;99.90;;;;;;5053253;28;20452;-68
2020/12/22 01:12:53;;;;;;;1.63;0.70;;;14.00;99.90;;;;;;5053603;28;20441;-67
2020/12/22 01:15:19;;;;;;;0.60;0.60;;;14.00;99.90;;;;;;5053569;28;20551;-68
2020/12/22 01:17:46;;;;;;;0.57;0.57;;;14.00;99.90;;;;;;5053447;28;20440;-67
2020/12/22 01:20:12;;;;;;;1.70;1.53;;;14.00;99.90;;;;;;5053182;28;20448;-67
2020/12/22 01:22:38;;;;;;;2.23;0.93;;;14.10;99.90;;;;;;5053337;28;20444;-67
2020/12/22 01:25:04;;;;;;;0.70;0.70;;;14.10;99.90;;;;;;5052888;28;21036;-67
2020/12/22 01:27:31;;;;;;;0.60;0.60;;;14.10;99.90;;;;;;5053152;28;20452;-66
2020/12/22 01:29:58;;;;;;;1.00;0.67;;;14.10;99.90;;;;;;5052956;28;20440;-67
2020/12/22 01:32:24;;;;;;;0.70;0.70;;;14.10;99.90;;;;;;5053074;28;20440;-67
2020/12/22 01:34:50;;;;;;;0.60;0.60;;;14.10;99.90;;;;;;5053175;28;20800;-67
2020/12/22 01:37:16;;;;;;;2.83;0.90;;;14.10;99.90;;;;;;5052866;28;20464;-67
2020/12/22 01:39:43;;;;;;;0.70;0.70;;;14.10;99.90;;;;;;5052973;28;20501;-66
2020/12/22 01:42:10;;;;;;;0.77;0.77;;;14.10;99.90;;;;;;5053059;28;20805;-66
2020/12/22 01:44:37;;;;;;;0.73;0.73;;;14.20;99.90;;;;;;5052285;28;20476;-67
2020/12/22 01:47:04;;;;;;;0.90;0.90;;;14.20;99.90;;;;;;5052300;28;20460;-67
2020/12/22 01:49:31;;;;;;;0.97;0.90;;;14.20;99.90;;;;;;5052774;28;20448;-68
2020/12/22 01:51:58;;;;;;;0.70;0.70;;;14.30;99.90;;;;;;5052639;28;20448;-69
2020/12/22 01:54:26;;;;;;;1.33;0.80;;;14.30;99.90;;;;;;5052532;28;20953;-68
2020/12/22 01:56:53;;;;;;;1.53;0.80;;;14.30;99.90;;;;;;5052591;28;20492;-68
2020/12/22 01:59:19;;;;;;;0.83;0.80;;;14.30;99.90;;;;;;5052475;28;20444;-68
2020/12/22 02:01:46;;;;;;;0.87;0.87;;;14.30;99.90;;;;;;5052484;28;20444;-69
2020/12/22 02:04:14;;;;;;;1.23;0.80;;;14.30;99.90;;;;;;5052510;28;20463;-68
2020/12/22 02:06:41;;;;;;;0.77;0.70;;;14.30;99.90;;;;;;5052342;28;20822;-67
2020/12/22 02:09:09;;;;;;;1.10;1.00;;;14.30;99.90;;;;;;5052467;28;20812;-68
2020/12/22 02:11:37;;;;;;;1.00;1.00;;;14.40;99.90;;;;;;5052193;28;20867;-68
2020/12/22 02:14:05;;;;;;;1.23;1.00;;;14.30;99.90;;;;;;5052363;28;20444;-68
2020/12/22 02:16:31;;;;;;;0.90;0.90;;;14.30;99.90;;;;;;5052185;28;20460;-69
2020/12/22 02:18:58;;;;;;;1.43;0.93;;;14.30;99.90;;;;;;5052171;28;20447;-68
2020/12/22 02:21:25;;;;;;;1.10;1.10;;;14.20;99.90;;;;;;5051949;28;20933;-68
2020/12/22 02:23:52;;;;;;;1.40;0.90;;;14.20;99.90;;;;;;5052187;28;20443;-68
2020/12/22 02:26:19;;;;;;;0.90;0.80;;;14.20;99.90;;;;;;5052316;28;20521;-67
2020/12/22 02:28:45;;;;;;;1.83;0.80;;;14.20;99.90;;;;;;5052105;28;20444;-67
2020/12/22 02:31:12;;;;;;;1.00;0.90;;;14.20;99.90;;;;;;5051800;28;20805;-67
2020/12/22 02:33:38;;;;;;;0.60;0.60;;;14.20;99.90;;;;;;5052029;28;21051;-67
2020/12/22 02:36:08;;;;;;;0.77;0.60;;;14.20;99.90;;;;;;5052162;28;20460;-67
2020/12/22 02:38:35;;;;;;;0.70;0.70;;;14.20;99.90;;;;;;5052029;28;20443;-67
2020/12/22 02:41:02;;;;;;;0.70;0.70;;;14.30;99.90;;;;;;5051677;28;20490;-67
2020/12/22 02:43:28;;;;;;;2.43;1.03;;;14.30;99.90;;;;;;5052002;28;20447;-67
2020/12/22 02:45:55;;;;;;;1.30;1.00;;;14.30;99.90;;;;;;5051656;28;20480;-67
2020/12/22 02:48:21;;;;;;;1.03;0.80;;;14.30;99.90;;;;;;5051693;28;20455;-67
2020/12/22 02:50:47;;;;;;;0.70;0.70;;;14.30;99.90;;;;;;5051581;28;20440;-67
2020/12/22 02:53:14;;;;;;;1.53;1.00;;;14.20;99.90;;;;;;5051668;28;20440;-67
2020/12/22 02:55:41;;;;;;;0.97;0.80;;;14.10;99.90;;;;;;5051538;28;20837;-67
2020/12/22 02:58:07;;;;;;;0.80;0.80;;;14.00;99.90;;;;;;5051414;28;20446;-67
2020/12/22 03:00:33;;;;;;;1.23;1.10;;;13.90;99.90;;;;;;5051476;28;20470;-66
2020/12/22 03:03:00;;;;;;;0.77;0.70;;;13.90;99.90;;;;;;5051621;28;20451;-68
2020/12/22 03:05:26;;;;;;;1.37;0.80;;;13.90;99.90;;;;;;5051484;28;20559;-67
2020/12/22 03:07:53;;;;;;;0.70;0.70;;;13.90;99.90;;;;;;5051513;28;20444;-68
2020/12/22 03:10:19;;;;;;;0.63;0.63;;;13.90;99.90;;;;;;5051356;28;20444;-67
2020/12/22 03:12:48;;;;;;;0.80;0.80;;;13.90;99.90;;;;;;5051564;28;20867;-67
2020/12/22 03:15:14;;;;;;;0.77;0.77;;;13.90;99.90;;;;;;5051458;28;20459;-67
2020/12/22 03:17:41;;;;;;;2.40;0.87;;;14.00;99.90;;;;;;5051609;28;20447;-67
2020/12/22 03:20:09;;;;;;;2.87;0.80;;;14.00;99.90;;;;;;5051200;28;20497;-67
2020/12/22 03:22:35;;;;;;;1.43;0.87;;;14.10;99.90;;;;;;5051323;28;20443;-67
2020/12/22 03:25:02;;;;;;;0.87;0.87;;;14.10;99.90;;;;;;5051203;28;20506;-67
2020/12/22 03:27:28;;;;;;;1.73;0.93;;;14.20;99.90;;;;;;5051330;28;20444;-67
2020/12/22 03:29:55;;;;;;;4.23;0.90;;;14.20;99.90;;;;;;5051155;28;20444;-66
2020/12/22 03:32:21;;;;;;;0.87;0.87;;;14.20;99.90;;;;;;5051207;28;20444;-65
2020/12/22 03:34:48;;;;;;;1.03;0.90;;;14.30;99.90;;;;;;5051483;28;20436;-65
2020/12/22 03:37:19;;;;;;;0.80;0.80;;;14.30;99.90;;;;;;5051337;28;20961;-66
2020/12/22 03:39:47;;;;;;;2.67;0.70;;;14.30;99.90;;;;;;5051144;28;20544;-66
2020/12/22 03:42:13;;;;;;;0.90;0.60;;;14.40;99.90;;;;;;5051123;28;20451;-66
2020/12/22 03:44:39;;;;;;;0.67;0.67;;;14.40;99.90;;;;;;5051209;28;20443;-66
2020/12/22 03:47:07;;;;;;;1.77;1.43;;;14.50;99.90;;;;;;5051008;28;20464;-67
2020/12/22 03:49:33;;;;;;;0.70;0.70;;;14.50;99.90;;;;;;5051040;28;20446;-67
2020/12/22 03:51:59;;;;;;;3.37;1.67;;;14.50;99.90;;;;;;5050902;28;20448;-67
2020/12/22 03:54:26;;;;;;;1.13;0.70;;;14.50;99.90;;;;;;5051024;28;20439;-66
2020/12/22 03:56:52;;;;;;;1.23;0.90;;;14.50;99.90;;;;;;5051116;28;20965;-67
2020/12/22 03:59:18;;;;;;;0.77;0.77;;;14.50;99.90;;;;;;5051183;28;20863;-67
2020/12/22 04:01:49;;;;;;;0.90;0.60;;;14.60;99.90;;;;;;5050763;28;20445;-67
2020/12/22 04:04:18;;;;;;;0.97;0.80;;;14.50;99.90;;;;;;5051304;28;20459;-67
2020/12/22 04:06:44;;;;;;;0.73;0.73;;;14.50;99.90;;;;;;5050817;28;20483;-66
2020/12/22 04:09:10;;;;;;;1.07;1.00;;;14.60;99.90;;;;;;5052790;28;20859;-67
2020/12/22 04:11:37;;;;;;;1.40;0.70;;;14.60;99.90;;;;;;5054604;28;20502;-66
2020/12/22 04:14:03;;;;;;;1.33;0.70;;;14.50;99.90;;;;;;5054729;28;20995;-66
2020/12/22 04:16:29;;;;;;;0.70;0.70;;;14.50;99.90;;;;;;5054512;28;20878;-67
2020/12/22 04:18:55;;;;;;;0.80;0.70;;;14.50;99.90;;;;;;5054593;28;20501;-67
2020/12/22 04:21:23;;;;;;;1.53;0.80;;;14.50;99.90;;;;;;5054229;28;20505;-66
2020/12/22 04:23:49;;;;;;;0.67;0.67;;;14.50;99.90;;;;;;5054424;28;20436;-67
2020/12/22 04:26:15;;;;;;;0.80;0.80;;;14.40;99.90;;;;;;5054107;28;20483;-67
2020/12/22 04:28:41;;;;;;;2.20;1.00;;;14.40;99.90;;;;;;5054170;28;20444;-67
2020/12/22 04:31:07;;;;;;;3.53;0.90;;;14.40;99.90;;;;;;5054093;28;20448;-67
2020/12/22 04:33:34;;;;;;;0.60;0.50;;;14.30;99.90;;;;;;5054264;28;20446;-67
2020/12/22 04:36:00;;;;;;;3.07;0.77;;;14.30;99.90;;;;;;5053942;28;20460;-66
2020/12/22 04:38:27;;;;;;;1.40;0.67;;;14.20;99.90;;;;;;5054146;28;20498;-66
2020/12/22 04:40:53;;;;;;;0.60;0.60;;;14.20;99.90;;;;;;5053920;28;20443;-67
2020/12/22 04:43:20;;;;;;;3.50;0.70;;;14.10;99.90;;;;;;5054093;28;20448;-66
2020/12/22 04:45:50;;;;;;;0.50;0.50;;;14.10;99.90;;;;;;5053868;28;20858;-67
2020/12/22 04:48:19;;;;;;;0.60;0.60;;;14.00;99.90;;;;;;5054030;28;20498;-66
2020/12/22 04:50:47;;;;;;;1.80;0.80;;;14.00;99.90;;;;;;5053524;28;20436;-67
2020/12/22 04:53:15;;;;;;;3.37;0.67;;;14.00;99.90;;;;;;5053967;28;20941;-67
2020/12/22 04:55:42;;;;;;;0.70;0.70;;;13.90;99.90;;;;;;5053708;28;20464;-67
2020/12/22 04:58:08;;;;;;;0.70;0.63;;;13.90;99.90;;;;;;5053735;28;20447;-67
2020/12/22 05:00:35;;;;;;;2.10;1.00;;;14.00;99.90;;;;;;5053586;28;20462;-65
2020/12/22 05:03:02;;;;;;;0.70;0.70;;;14.10;99.90;;;;;;5053702;28;20444;-66
2020/12/22 05:05:30;;;;;;;0.57;0.57;;;14.20;99.90;;;;;;5053343;28;21062;-67
2020/12/22 05:07:56;;;;;;;0.60;0.60;;;14.20;99.90;;;;;;5053718;28;20997;-67
2020/12/22 05:10:24;;;;;;;3.27;0.60;;;14.30;99.90;;;;;;5053296;28;20439;-67
2020/12/22 05:12:52;;;;;;;0.50;0.50;;;14.30;99.90;;;;;;5053439;28;20453;-66
2020/12/22 05:15:18;;;;;;;0.50;0.50;;;14.30;99.90;;;;;;5053348;28;20465;-67
2020/12/22 05:17:45;;;;;;;0.60;0.60;;;14.30;99.90;;;;;;5053376;28;20447;-67
2020/12/22 05:20:14;;;;;;;0.70;0.50;;;14.40;99.90;;;;;;5052998;28;20510;-66
2020/12/22 05:22:41;;;;;;;0.70;0.70;;;14.40;99.90;;;;;;5053353;28;20447;-66
2020/12/22 05:25:08;;;;;;;0.97;0.70;;;14.40;99.90;;;;;;5052921;28;20488;-67
2020/12/22 05:27:36;;;;;;;0.60;0.60;;;14.40;99.90;;;;;;5053257;28;20470;-67
2020/12/22 05:30:04;;;;;;;0.97;0.97;;;14.40;99.90;;;;;;5052947;28;20444;-67
2020/12/22 05:32:31;;;;;;;0.50;0.50;;;14.30;99.90;;;;;;5053084;28;20937;-66
2020/12/22 05:34:58;;;;;;;0.83;0.83;;;14.40;99.90;;;;;;5053001;28;20444;-67
2020/12/22 05:37:25;;;;;;;0.80;0.50;;;14.40;99.90;;;;;;5052959;28;20941;-66
2020/12/22 05:39:52;;;;;;;1.03;0.70;;;14.50;99.90;;;;;;5052849;28;20452;-69
2020/12/22 05:42:19;;;;;;;3.60;0.80;;;14.50;99.90;;;;;;5052797;28;20444;-66
2020/12/22 05:44:47;;;;;;;1.47;0.60;;;14.40;99.90;;;;;;5052745;28;20440;-67
2020/12/22 05:47:18;;;;;;;0.80;0.63;;;14.40;99.90;;;;;;5052698;28;20464;-67
2020/12/22 05:49:52;;;;;;;1.30;0.73;;;14.30;99.90;;;;;;5052359;28;20443;-65
2020/12/22 05:52:23;;;;;;;1.10;0.70;;;14.30;99.90;;;;;;5051840;28;20448;-67
2020/12/22 05:54:51;;;;;;;0.97;0.87;;;14.30;99.90;;;;;;5052492;28;20452;-66
2020/12/22 05:57:22;;;;;;;0.60;0.60;;;14.30;99.90;;;;;;5052495;28;20464;-68
2020/12/22 05:59:49;;;;;;;0.60;0.60;;;14.30;99.90;;;;;;5052299;28;20444;-66
2020/12/22 06:02:27;;;;;;;0.53;0.50;;;14.30;99.90;;;;;;5052654;28;20530;-66
2020/12/22 06:04:55;;;;;;;0.80;0.50;;;14.30;99.90;;;;;;5052367;28;20933;-67
2020/12/22 06:07:22;;;;;;;0.50;0.50;;;14.30;99.90;;;;;;5052398;28;20448;-68
2020/12/22 06:09:48;;;;;;;0.60;0.60;;;14.30;99.90;;;;;;5052187;28;20456;-68
2020/12/22 06:12:15;;;;;;;1.07;0.60;;;14.20;99.90;;;;;;5052431;28;20470;-66
2020/12/22 06:14:44;;;;;;;0.60;0.50;;;14.20;99.90;;;;;;5052428;28;20969;-68
2020/12/22 06:17:12;;;;;;;0.60;0.60;;;14.10;99.90;;;;;;5052131;28;20475;-66
2020/12/22 06:19:40;;;;;;;1.07;0.60;;;14.10;99.90;;;;;;5051760;28;20444;-66
2020/12/22 06:22:10;;;;;;;1.57;0.80;;;14.10;99.90;;;;;;5052281;28;20440;-66
2020/12/22 06:24:37;;;;;;;1.00;0.63;;;14.10;99.90;;;;;;5052294;28;20539;-66
2020/12/22 06:27:04;;;;;;;4.77;0.80;;;14.10;99.90;;;;;;5051843;28;20495;-66
2020/12/22 06:29:30;;;;;;;1.13;0.63;;;14.10;99.90;;;;;;5052289;28;20440;-67
2020/12/22 06:32:22;;;;;;;0.70;0.70;;;14.00;99.90;;;;;;5051297;28;20448;-68
2020/12/22 06:34:49;;;;;;;1.83;0.80;;;14.10;99.90;;;;;;5051990;28;20452;-67
2020/12/22 06:37:15;;;;;;;0.90;0.70;;;14.10;99.90;;;;;;5051795;28;20472;-66
2020/12/22 06:39:42;;;;;;;1.37;0.60;;;14.10;99.90;;;;;;5051688;28;20436;-66
2020/12/22 06:42:10;;;;;;;0.60;0.60;;;14.10;99.90;;;;;;5051849;28;20448;-68
2020/12/22 06:44:36;;;;;;;1.47;0.80;;;14.10;99.90;;;;;;5051801;28;20444;-66
2020/12/22 06:47:04;;;;;;;0.93;0.63;;;14.10;99.90;;;;;;5051438;28;20498;-68
2020/12/22 06:49:51;;;;;;;2.03;0.77;;;14.20;99.90;;;;;;5051764;28;20526;-66
2020/12/22 06:52:34;;;;;;;1.10;0.60;;;14.20;99.90;;;;;;5051597;28;20435;-68
2020/12/22 06:55:02;;;;;;;1.20;1.07;;;14.30;99.90;;;;;;5051697;28;20494;-67
2020/12/22 06:57:47;;;;;;;2.40;0.80;;;14.20;99.90;;;;;;5051776;28;20439;-67
2020/12/22 07:00:38;;;;;;;2.40;0.90;;;14.20;99.90;;;;;;5051208;28;20446;-69
2020/12/22 07:03:24;;;;;;;1.23;0.83;;;14.00;99.90;;;;;;5051513;28;20870;-68
2020/12/22 07:05:53;;;;;;;0.83;0.63;;;13.90;99.90;;;;;;5051305;28;20480;-68
2020/12/22 07:08:19;;;;;;;2.43;0.80;;;13.90;99.90;;;;;;5051478;28;20785;-68
2020/12/22 07:10:47;;;;;;;1.30;0.90;;;13.90;99.90;;;;;;5051371;28;20444;-68
2020/12/22 07:13:16;;;;;;;5.27;1.23;;;13.90;99.90;;;;;;5051491;28;20494;-68
2020/12/22 07:15:44;;;;;;;4.40;3.17;;;13.80;99.90;;;;;;5051540;28;20460;-66
2020/12/22 07:18:11;;;;;;;1.00;0.90;;;13.80;99.90;;;;;;5051269;28;20440;-67
2020/12/22 07:20:42;;;;;;;2.63;0.80;;;13.80;99.90;;;;;;5051038;28;20451;-65
2020/12/22 07:23:09;;;;;;;0.80;0.80;;;13.80;99.90;;;;;;5051604;28;20452;-66
2020/12/22 07:25:37;;;;;;;1.20;1.03;;;13.80;99.90;;;;;;5051203;28;20484;-67
2020/12/22 07:28:04;;;;;;;3.53;0.80;;;13.80;99.90;;;;;;5051392;28;20807;-68
2020/12/22 07:30:31;;;;;;;2.10;1.00;;;13.90;99.90;;;;;;5051256;28;20448;-67
2020/12/22 07:32:59;;;;;;;0.70;0.70;;;13.90;99.90;;;;;;5051689;28;20454;-68
2020/12/22 07:35:26;;;;;;;1.10;1.10;;;13.90;99.90;;;;;;5051157;28;20460;-68
2020/12/22 07:37:52;;;;;;;0.90;0.90;;;14.00;99.90;;;;;;5051299;28;20440;-65
2020/12/22 07:40:19;;;;;;;1.10;1.10;;;14.00;99.90;;;;;;5050988;28;20443;-65
2020/12/22 07:42:45;;;;;;;1.73;1.17;;;14.00;99.90;;;;;;5051162;28;20447;-68
2020/12/22 07:45:12;;;;;;;0.97;0.80;;;14.00;99.90;;;;;;5054756;28;20840;-65
2020/12/22 07:47:38;;;;;;;0.90;0.90;;;14.00;99.90;;;;;;5054970;28;20459;-65
2020/12/22 07:50:14;;;;;;;1.27;0.97;;;14.10;99.90;;;;;;5054841;28;20451;-68
2020/12/22 07:52:40;;;;;;;1.10;1.10;;;14.10;99.90;;;;;;5054999;28;20458;-67
2020/12/22 07:55:07;;;;;;;3.80;2.27;;;14.00;99.90;;;;;;5054864;28;20470;-65
2020/12/22 07:57:37;;;;;;;1.30;1.30;;;14.00;99.90;;;;;;5054960;28;20447;-68
2020/12/22 08:00:05;;;;;;;1.97;1.30;;;13.90;99.90;;;;;;5054578;28;20505;-68
2020/12/22 08:02:32;;;;;;;1.20;1.20;;;13.90;99.90;;;;;;5054857;28;20444;-66
2020/12/22 08:05:07;;;;;;;1.47;1.30;;;13.90;99.90;;;;;;5054597;28;20447;-67
2020/12/22 08:07:33;;;;;;;1.40;1.30;;;13.90;99.90;;;;;;5054801;28;20439;-65
2020/12/22 08:10:07;;;;;;;1.50;1.40;;;13.90;99.90;;;;;;5053940;28;20448;-67
2020/12/22 08:12:33;;;;;;;1.57;1.47;;;13.90;99.90;;;;;;5054683;28;20797;-66
2020/12/22 08:15:01;;;;;;;4.23;1.20;;;14.00;99.90;;;;;;5054335;28;20963;-67
2020/12/22 08:17:28;;;;;;;1.67;1.47;;;13.90;99.90;;;;;;5054471;28;20448;-64
2020/12/22 08:19:55;;;;;;;1.73;1.20;;;14.10;99.90;;;;;;5054545;28;20440;-66
2020/12/22 08:22:23;;;;;;;2.00;1.47;;;14.10;99.90;;;;;;5054381;28;20436;-65
2020/12/22 08:24:50;;;;;;;1.13;1.13;;;14.20;99.90;;;;;;5054374;28;20995;-65
2020/12/22 08:27:16;;;;;;;3.30;1.57;;;14.20;99.90;;;;;;5054646;28;20464;-68
2020/12/22 08:29:43;;;;;;;1.60;1.37;;;14.20;99.90;;;;;;5054051;28;20447;-67
2020/12/22 08:32:12;;;;;;;1.90;1.77;;;14.20;99.90;;;;;;5054114;28;20872;-66
2020/12/22 08:34:45;;;;;;;1.63;1.20;;;14.20;99.90;;;;;;5054280;28;20442;-66
2020/12/22 08:37:11;;;;;;;1.10;1.10;;;14.30;99.90;;;;;;5054019;28;20460;-67
2020/12/22 08:39:39;;;;;;;1.83;1.60;;;14.30;99.90;;;;;;5053434;28;20447;-65
2020/12/22 08:42:08;;;;;;;1.10;1.10;;;14.40;99.90;;;;;;5053765;28;20440;-66
2020/12/22 08:44:34;;;;;;;1.83;1.43;;;14.40;99.90;;;;;;5054031;28;20440;-66
2020/12/22 08:47:11;;;;;;;2.17;1.50;;;14.50;99.90;;;;;;5053842;28;20491;-66
2020/12/22 08:49:37;;;;;;;1.40;1.30;;;14.50;99.90;;;;;;5053847;28;20941;-67
2020/12/22 08:52:10;;;;;;;1.90;1.80;;;14.50;99.90;;;;;;5053796;28;20930;-67
2020/12/22 08:54:36;;;;;;;1.80;1.70;;;14.50;99.90;;;;;;5053332;28;21002;-65
2020/12/22 08:57:13;;;;;;;2.07;1.97;;;14.60;99.90;;;;;;5053743;28;20799;-67
2020/12/22 08:59:40;;;;;;;1.80;1.50;;;14.70;99.90;;;;;;5053553;28;20933;-67
2020/12/22 09:02:06;;;;;;;2.50;1.50;;;14.70;99.90;;;;;;5053502;28;20439;-67
2020/12/22 09:04:34;;;;;;;1.70;1.43;;;14.70;99.90;;;;;;5053532;28;20444;-66
2020/12/22 09:07:00;;;;;;;2.50;1.50;;;14.80;99.90;;;;;;5053456;28;20483;-67
2020/12/22 09:09:30;;;;;;;2.00;1.80;;;14.80;99.90;;;;;;5053575;28;20444;-70
2020/12/22 09:12:04;;;;;;;2.23;1.40;;;14.80;99.90;;;;;;5053219;28;20542;-67
2020/12/22 09:14:41;;;;;;;1.40;1.40;;;14.80;99.90;;;;;;5053513;28;20440;-66
2020/12/22 09:17:07;;;;;;;1.30;1.27;;;14.80;99.90;;;;;;5053370;28;20466;-67
2020/12/22 09:19:42;;;;;;;2.00;1.90;;;14.80;99.90;;;;;;5053324;28;20444;-68
2020/12/22 09:22:10;;;;;;;2.10;1.80;;;14.90;99.90;;;;;;5053139;28;20444;-66
2020/12/22 09:24:36;;;;;;;5.80;1.77;;;14.90;99.90;;;;;;5053374;28;20448;-69
2020/12/22 09:27:05;;;;;;;2.20;2.10;;;14.90;99.90;;;;;;5052769;28;20541;-66
2020/12/22 09:29:31;;;;;;;2.20;1.53;;;15.00;99.90;;;;;;5053186;28;20455;-66
2020/12/22 09:31:59;;;;;;;3.20;2.00;;;15.10;99.90;;;;;;5052953;28;20497;-69
2020/12/22 09:34:28;;;;;;;2.13;1.90;;;15.10;99.90;;;;;;5053150;28;20537;-69
2020/12/22 09:36:57;;;;;;;2.10;2.10;;;15.10;99.90;;;;;;5052349;28;20499;-69
2020/12/22 09:39:24;;;;;;;2.67;2.47;;;15.20;99.90;;;;;;5052677;28;20444;-67
2020/12/22 09:41:50;;;;;;;2.40;2.40;;;15.10;99.90;;;;;;5052259;28;20437;-67
2020/12/22 09:44:17;;;;;;;2.80;2.70;;;15.10;99.90;;;;;;5052836;28;20446;-67
2020/12/22 09:46:46;;;;;;;2.37;2.37;;;15.20;99.90;;;;;;5052577;28;20484;-67
2020/12/22 09:49:12;;;;;;;2.43;2.43;;;15.10;99.90;;;;;;5052871;28;20823;-66
2020/12/22 09:51:39;;;;;;;3.13;3.03;;;15.10;99.90;;;;;;5052345;28;20440;-67
2020/12/22 09:54:06;;;;;;;3.67;3.30;;;15.20;99.90;;;;;;5052958;28;20456;-67
2020/12/22 09:56:32;;;;;;;3.30;3.10;;;15.20;99.90;;;;;;5052635;28;20495;-66
2020/12/22 09:58:59;;;;;;;3.30;3.00;;;15.20;99.90;;;;;;5052648;28;20445;-68
2020/12/22 10:01:26;;;;;;;2.53;2.53;;;15.20;99.90;;;;;;5052730;28;20444;-68
2020/12/22 10:03:53;;;;;;;3.00;2.90;;;15.10;99.90;;;;;;5053562;28;20459;-67
2020/12/22 10:06:21;;;;;;;4.00;3.80;;;15.00;99.90;;;;;;5051352;28;20484;-65
2020/12/22 10:08:48;;;;;;;3.13;3.07;;;15.00;99.90;;;;;;5051940;28;20455;-66
2020/12/22 10:11:16;;;;;;;3.00;3.00;;;14.90;99.90;;;;;;5052233;28;20444;-65
2020/12/22 10:13:42;;;;;;;4.70;2.90;;;14.80;99.90;;;;;;5052169;28;20444;-68
2020/12/22 10:16:11;;;;;;;3.00;2.83;;;14.80;99.90;;;;;;5052178;28;20464;-68
2020/12/22 10:18:37;;;;;;;3.20;3.10;;;14.90;99.90;;;;;;5052120;28;20486;-65
2020/12/22 10:21:05;;;;;;;2.67;2.67;;;15.00;99.90;;;;;;5051985;28;20463;-69
2020/12/22 10:23:32;;;;;;;2.20;2.10;;;14.90;99.90;;;;;;5052126;28;20444;-69
2020/12/22 10:25:58;;;;;;;2.30;2.27;;;14.90;99.90;;;;;;5051911;28;20488;-69
2020/12/22 10:28:25;;;;;;;2.20;2.10;;;14.90;99.90;;;;;;5052163;28;20768;-69
2020/12/22 10:30:51;;;;;;;2.30;2.30;;;14.80;99.90;;;;;;5051713;28;20448;-69
2020/12/22 10:33:18;;;;;;;2.30;2.20;;;14.70;99.90;;;;;;5051977;28;20448;-68
2020/12/22 10:35:45;;;;;;;1.97;1.87;;;14.70;99.90;;;;;;5051792;28;20486;-68
2020/12/22 10:38:11;;;;;;;2.40;2.30;;;14.70;99.90;;;;;;5052005;28;20472;-69
2020/12/22 10:40:38;;;;;;;2.50;2.03;;;14.80;99.90;;;;;;5051686;28;20450;-69
2020/12/22 10:43:05;;;;;;;2.17;2.07;;;14.90;99.90;;;;;;5051641;28;20444;-67
2020/12/22 10:45:32;;;;;;;2.50;2.40;;;15.00;99.90;;;;;;5051153;28;20488;-69
2020/12/22 10:47:58;;;;;;;2.40;2.30;;;15.20;99.90;;;;;;5051157;28;20852;-68
2020/12/22 10:50:25;;;;;;;3.00;2.90;;;15.60;99.90;;;;;;5051327;28;20448;-68
2020/12/22 10:52:51;;;;;;;4.00;3.90;;;15.80;99.90;;;;;;5051871;28;20868;-66
2020/12/22 10:55:17;;;;;;;4.70;4.50;;;15.90;99.90;;;;;;5051471;28;20947;-68
2020/12/22 10:57:43;;;;;;;5.20;5.10;;;16.10;99.90;;;;;;5051469;28;20953;-66
2020/12/22 11:00:10;;;;;;;6.50;6.20;;;16.30;99.90;;;;;;5051313;28;20446;-66
2020/12/22 11:02:37;;;;;;;7.03;6.80;;;16.50;99.90;;;;;;5051593;28;20448;-66
2020/12/22 11:05:04;;;;;;;7.73;7.33;;;16.60;99.90;;;;;;5051452;28;20439;-68
2020/12/22 11:07:34;;;;;;;9.30;8.70;;;16.60;99.90;;;;;;5051315;28;20476;-68
2020/12/22 11:10:01;;;;;;;8.20;7.90;;;16.60;99.90;;;;;;5051288;28;21012;-66
2020/12/22 11:12:27;;;;;;;8.90;8.30;;;16.40;99.90;;;;;;5051321;28;20452;-66
2020/12/22 11:14:53;;;;;;;9.47;8.10;;;16.20;99.90;;;;;;5051461;28;20801;-66
2020/12/22 11:17:19;;;;;;;8.73;8.43;;;16.30;99.90;;;;;;5051340;28;20456;-68
2020/12/22 11:19:47;;;;;;;9.80;9.50;;;16.90;99.90;;;;;;5055352;28;20945;-68
2020/12/22 11:22:13;;;;;;;10.37;9.87;;;17.40;99.90;;;;;;5055189;28;20817;-67
2020/12/22 11:24:39;;;;;;;11.00;10.70;;;17.70;99.90;;;;;;5055483;28;20444;-68
2020/12/22 11:27:05;;;;;;;11.63;11.13;;;17.90;99.90;;;;;;5055115;28;20491;-67
2020/12/22 11:29:32;;;;;;;11.97;11.57;;;18.30;99.90;;;;;;5055272;28;20443;-67
2020/12/22 11:31:58;;;;;;;12.43;12.03;;;18.40;99.90;;;;;;5055168;28;20451;-68
2020/12/22 11:34:24;;;;;;;13.07;12.60;;;19.00;99.90;;;;;;5055237;28;20445;-66
2020/12/22 11:36:52;;;;;;;13.73;12.93;;;19.40;99.90;;;;;;5055102;28;20467;-66
2020/12/22 11:39:19;;;;;;;14.10;13.50;;;19.50;99.90;;;;;;5055199;28;20925;-67
2020/12/22 11:41:46;;;;;;;13.60;13.20;;;19.50;99.90;;;;;;5054987;28;20570;-68
2020/12/22 11:44:12;;;;;;;13.40;13.00;;;19.60;99.90;;;;;;5055244;28;20454;-66
2020/12/22 11:46:43;;;;;;;14.50;13.70;;;19.10;99.90;;;;;;5055000;28;20556;-65
2020/12/22 11:49:09;;;;;;;13.80;13.30;;;18.60;99.90;;;;;;5054948;28;20451;-68
2020/12/22 11:51:36;;;;;;;13.87;13.43;;;18.60;99.90;;;;;;5054795;28;20447;-67
2020/12/22 11:54:03;;;;;;;13.30;12.90;;;18.10;99.90;;;;;;5054899;28;20452;-67
2020/12/22 11:56:30;;;;;;;13.50;13.00;;;17.80;99.90;;;;;;5054849;28;20464;-67
2020/12/22 11:58:56;;;;;;;13.57;13.17;;;17.70;99.90;;;;;;5054933;28;20451;-67
2020/12/22 12:01:27;;;;;;;13.60;13.20;;;17.60;99.90;;;;;;5054471;28;20450;-65
2020/12/22 12:03:53;;;;;;;13.30;12.90;;;17.40;99.90;;;;;;5054999;28;20456;-68
2020/12/22 12:06:20;;;;;;;13.10;12.60;;;17.00;99.90;;;;;;5054463;28;20597;-66
2020/12/22 12:08:46;;;;;;;12.93;12.50;;;16.80;99.90;;;;;;5054652;28;20440;-65
2020/12/22 12:11:14;;;;;;;13.37;12.73;;;16.50;99.90;;;;;;5054016;28;20451;-66
2020/12/22 12:13:40;;;;;;;12.97;12.43;;;16.20;99.90;;;;;;5054571;28;21095;-64
2020/12/22 12:16:06;;;;;;;14.17;13.00;;;16.10;99.90;;;;;;5054331;28;20464;-66
2020/12/22 12:18:33;;;;;;;12.47;12.07;;;15.90;99.90;;;;;;5054662;28;20451;-66
2020/12/22 12:20:59;;;;;;;11.73;11.43;;;15.90;99.90;;;;;;5054113;28;20448;-68
2020/12/22 12:23:26;;;;;;;11.90;11.50;;;15.90;99.90;;;;;;5054229;28;20444;-67
2020/12/22 12:25:53;;;;;;;11.77;11.30;;;15.80;99.90;;;;;;5054028;28;20488;-67
2020/12/22 12:28:20;;;;;;;11.30;10.90;;;15.80;99.90;;;;;;5054241;28;20496;-66
2020/12/22 12:30:47;;;;;;;11.13;10.73;;;15.80;99.90;;;;;;5053031;28;20949;-67
2020/12/22 12:33:13;;;;;;;10.63;10.33;;;15.70;99.90;;;;;;5054092;28;20451;-68
2020/12/22 12:35:39;;;;;;;11.47;10.97;;;15.70;99.90;;;;;;5053754;28;20457;-64
2020/12/22 12:38:05;;;;;;;11.10;10.80;;;15.70;99.90;;;;;;5054173;28;20448;-66
2020/12/22 12:40:32;;;;;;;10.83;10.43;;;15.60;99.90;;;;;;5053689;28;20493;-66
2020/12/22 12:42:58;;;;;;;11.03;10.63;;;15.60;99.90;;;;;;5054053;28;20448;-65
2020/12/22 12:45:26;;;;;;;9.70;9.40;;;15.50;99.90;;;;;;5053860;28;20464;-69
2020/12/22 12:47:52;;;;;;;10.27;9.97;;;15.60;99.90;;;;;;5054071;28;20448;-67